createdAt,value
2019-04-05T00:00:14.717Z,73.00
2019-04-05T00:02:41.033Z,72.80
2019-04-05T00:05:07.580Z,72.40
2019-04-05T00:07:34.020Z,72.80
2019-04-05T00:10:00.419Z,72.50
2019-04-05T00:12:26.772Z,72.40
2019-04-05T00:14:53.210Z,72.50
2019-04-05T00:17:19.653Z,72.90
2019-04-05T00:19:45.987Z,72.90
2019-04-05T00:22:12.452Z,72.90
2019-04-05T00:24:38.919Z,72.70
2019-04-05T00:27:05.356Z,72.90
2019-04-05T00:29:31.701Z,73.20
2019-04-05T00:31:58.095Z,73.30
2019-04-05T00:34:24.605Z,73.80
2019-04-05T00:36:50.954Z,73.80
2019-04-05T00:39:17.189Z,73.70
2019-04-05T00:41:43.426Z,73.50
2019-04-05T00:44:09.871Z,73.60
2019-04-05T00:46:36.331Z,73.70
2019-04-05T00:49:02.757Z,73.90
2019-04-05T00:51:29.101Z,74.20
2019-04-05T00:53:55.653Z,74.70
2019-04-05T00:56:22.006Z,74.50
2019-04-05T00:58:48.472Z,74.60
2019-04-05T01:01:15.218Z,74.50
2019-04-05T01:03:41.548Z,74.60
2019-04-05T01:06:07.987Z,75.50
2019-04-05T01:08:34.520Z,74.70
2019-04-05T01:11:00.949Z,75.00
2019-04-05T01:13:27.593Z,75.00
2019-04-05T01:15:53.968Z,75.50
2019-04-05T01:18:20.413Z,75.70
2019-04-05T01:20:47.678Z,75.40
2019-04-05T01:23:15.126Z,75.50
2019-04-05T01:25:41.481Z,75.40
2019-04-05T01:28:07.925Z,75.50
2019-04-05T01:30:34.413Z,75.30
2019-04-05T01:33:01.044Z,75.10
2019-04-05T01:35:27.484Z,75.50
2019-04-05T01:37:54.076Z,75.20
2019-04-05T01:40:20.305Z,75.60
2019-04-05T01:42:47.241Z,75.80
2019-04-05T01:45:13.913Z,75.70
2019-04-05T01:47:40.312Z,75.80
2019-04-05T01:50:07.062Z,76.20
2019-04-05T01:52:34.457Z,76.00
2019-04-05T01:55:00.882Z,76.20
2019-04-05T01:57:27.325Z,76.00
2019-04-05T01:59:54.453Z,76.20
2019-04-05T02:02:20.888Z,76.10
2019-04-05T02:04:47.333Z,76.10
2019-04-05T02:07:13.970Z,76.00
2019-04-05T02:09:40.385Z,76.10
2019-04-05T02:12:07.041Z,76.00
2019-04-05T02:14:33.663Z,76.50
2019-04-05T02:17:00.088Z,77.00
2019-04-05T02:19:26.532Z,77.70
2019-04-05T02:21:53.113Z,78.10
2019-04-05T02:24:19.544Z,78.20
2019-04-05T02:26:45.982Z,78.20
2019-04-05T02:29:12.549Z,78.40
2019-04-05T02:31:38.994Z,78.30
2019-04-05T02:34:05.532Z,78.30
2019-04-05T02:36:32.170Z,78.60
2019-04-05T02:38:58.590Z,79.00
2019-04-05T02:41:26.235Z,79.10
2019-04-05T02:43:55.012Z,79.20
2019-04-05T02:46:24.381Z,79.30
2019-04-05T02:48:51.827Z,79.50
2019-04-05T02:51:21.870Z,79.90
2019-04-05T02:53:49.283Z,80.00
2019-04-05T02:56:16.446Z,80.40
2019-04-05T02:58:43.594Z,80.60
2019-04-05T03:01:10.289Z,80.70
2019-04-05T03:03:36.766Z,81.10
2019-04-05T03:06:05.934Z,81.30
2019-04-05T03:08:32.526Z,81.40
2019-04-05T03:11:12.919Z,81.70
2019-04-05T03:13:42.946Z,81.70
2019-04-05T03:16:15.982Z,82.10
2019-04-05T03:18:45.978Z,82.20
2019-04-05T03:21:13.931Z,82.30
2019-04-05T03:23:42.693Z,82.60
2019-04-05T03:26:12.724Z,82.70
2019-04-05T03:28:41.585Z,82.70
2019-04-05T03:31:08.853Z,82.90
2019-04-05T03:33:35.481Z,82.90
2019-04-05T03:36:01.918Z,82.80
2019-04-05T03:38:28.666Z,83.10
2019-04-05T03:40:55.310Z,83.00
2019-04-05T03:43:21.747Z,83.10
2019-04-05T03:45:48.225Z,83.10
2019-04-05T03:48:14.666Z,83.20
2019-04-05T03:50:44.916Z,83.40
2019-04-05T03:53:09.461Z,82.90
2019-04-05T03:55:35.941Z,82.60
2019-04-05T03:58:02.882Z,82.50
2019-04-05T04:00:29.207Z,82.80
2019-04-05T04:02:56.434Z,83.30
2019-04-05T04:05:22.877Z,83.20
2019-04-05T04:07:49.750Z,83.00
2019-04-05T04:10:16.185Z,83.50
2019-04-05T04:12:42.733Z,83.70
2019-04-05T04:15:14.192Z,84.20
2019-04-05T04:17:42.717Z,83.90
2019-04-05T04:20:18.793Z,84.00
2019-04-05T04:22:48.439Z,83.90
2019-04-05T04:25:13.465Z,84.00
2019-04-05T04:27:40.239Z,84.20
2019-04-05T04:30:06.676Z,84.30
2019-04-05T04:32:33.182Z,84.30
2019-04-05T04:35:00.635Z,84.60
2019-04-05T04:37:27.163Z,84.60
2019-04-05T04:39:53.636Z,84.60
2019-04-05T04:42:20.589Z,85.00
2019-04-05T04:44:47.009Z,85.20
2019-04-05T04:47:25.703Z,85.50
2019-04-05T04:49:41.929Z,85.20
2019-04-05T04:52:08.666Z,85.40
2019-04-05T04:54:35.411Z,85.60
2019-04-05T04:57:02.372Z,85.70
2019-04-05T04:59:28.898Z,86.20
2019-04-05T05:01:55.245Z,85.40
2019-04-05T05:04:22.078Z,85.60
2019-04-05T05:06:48.705Z,85.30
2019-04-05T05:09:15.317Z,84.90
2019-04-05T05:11:42.053Z,86.50
2019-04-05T05:14:08.492Z,83.70
2019-04-05T05:16:35.029Z,83.30
2019-04-05T05:19:01.657Z,83.10
2019-04-05T05:21:30.239Z,83.00
2019-04-05T05:23:56.673Z,82.40
2019-04-05T05:26:23.301Z,82.20
2019-04-05T05:28:49.968Z,82.30
2019-04-05T05:31:17.113Z,82.10
2019-04-05T05:33:43.950Z,81.50
2019-04-05T05:36:10.799Z,81.30
2019-04-05T05:38:37.474Z,80.80
2019-04-05T05:41:04.020Z,79.60
2019-04-05T05:43:30.469Z,78.80
2019-04-05T05:45:56.813Z,79.20
2019-04-05T05:48:23.266Z,78.20
2019-04-05T05:50:49.927Z,77.20
2019-04-05T05:53:16.365Z,74.30
2019-04-05T05:55:42.845Z,70.40
2019-04-05T05:58:09.324Z,66.70
2019-04-05T06:00:35.880Z,64.60
2019-04-05T06:03:02.652Z,62.80
2019-04-05T06:05:29.075Z,61.40
2019-04-05T06:07:55.521Z,60.10
2019-04-05T06:10:21.886Z,59.20
2019-04-05T06:12:48.126Z,57.80
2019-04-05T06:15:14.518Z,57.60
2019-04-05T06:17:40.986Z,57.00
2019-04-05T06:20:07.624Z,56.30
2019-04-05T06:22:33.964Z,56.40
2019-04-05T06:25:00.313Z,56.40
2019-04-05T06:27:26.551Z,56.30
2019-04-05T06:29:52.796Z,56.40
2019-04-05T06:32:19.241Z,56.70
2019-04-05T06:34:45.685Z,56.80
2019-04-05T06:37:11.934Z,56.50
2019-04-05T06:39:38.209Z,55.80
2019-04-05T06:42:04.545Z,56.00
2019-04-05T06:44:30.785Z,56.30
2019-04-05T06:46:57.321Z,56.10
2019-04-05T06:49:23.545Z,56.00
2019-04-05T06:51:49.885Z,55.90
2019-04-05T06:54:16.131Z,56.80
2019-04-05T06:56:42.464Z,57.80
2019-04-05T06:59:08.723Z,59.10
2019-04-05T07:01:35.197Z,60.40
2019-04-05T07:04:01.633Z,61.90
2019-04-05T07:06:27.936Z,64.00
2019-04-05T07:08:54.379Z,64.70
2019-04-05T07:11:20.621Z,65.30
2019-04-05T07:13:47.058Z,66.00
2019-04-05T07:16:13.521Z,66.70
2019-04-05T07:18:39.849Z,67.80
2019-04-05T07:21:06.288Z,68.60
2019-04-05T07:23:32.692Z,69.10
2019-04-05T07:25:59.022Z,69.30
2019-04-05T07:28:25.506Z,69.80
2019-04-05T07:30:51.888Z,69.70
2019-04-05T07:33:18.318Z,69.30
2019-04-05T07:35:44.757Z,68.80
2019-04-05T07:38:11.013Z,69.50
2019-04-05T07:40:37.447Z,69.60
2019-04-05T07:43:03.886Z,68.80
2019-04-05T07:45:30.472Z,69.60
2019-04-05T07:47:56.899Z,68.90
2019-04-05T07:50:23.390Z,68.70
2019-04-05T07:52:49.841Z,68.90
2019-04-05T07:55:16.268Z,68.40
2019-04-05T07:57:42.720Z,68.30
2019-04-05T08:00:18.885Z,68.60
2019-04-05T08:02:45.225Z,68.90
2019-04-05T08:05:11.761Z,69.10
2019-04-05T08:07:41.928Z,69.10
2019-04-05T08:10:09.069Z,69.30
2019-04-05T08:12:35.810Z,69.60
2019-04-05T08:15:04.649Z,69.20
2019-04-05T08:17:30.887Z,68.90
2019-04-05T08:19:57.327Z,68.30
2019-04-05T08:22:24.010Z,69.40
2019-04-05T08:24:50.233Z,68.40
2019-04-05T08:27:16.569Z,68.40
2019-04-05T08:29:42.929Z,68.30
2019-04-05T08:32:14.710Z,68.00
2019-04-05T08:34:37.397Z,68.30
2019-04-05T08:37:03.882Z,68.20
2019-04-05T08:39:30.513Z,68.40
2019-04-05T08:41:56.948Z,68.70
2019-04-05T08:44:23.305Z,69.00
2019-04-05T08:46:49.732Z,71.50
2019-04-05T08:49:16.087Z,70.00
2019-04-05T08:51:42.738Z,70.40
2019-04-05T08:54:09.238Z,69.50
2019-04-05T08:56:35.571Z,69.30
2019-04-05T08:59:02.187Z,69.40
2019-04-05T09:01:28.488Z,68.70
2019-04-05T09:03:54.857Z,69.00
2019-04-05T09:06:21.097Z,69.60
2019-04-05T09:08:47.355Z,68.30
2019-04-05T09:11:13.797Z,68.60
2019-04-05T09:13:40.253Z,69.30
2019-04-05T09:16:06.694Z,69.00
2019-04-05T09:18:33.041Z,68.70
2019-04-05T09:20:59.604Z,68.80
2019-04-05T09:23:25.936Z,67.50
2019-04-05T09:25:52.377Z,68.00
2019-04-05T09:28:19.100Z,68.30
2019-04-05T09:30:45.531Z,68.00
2019-04-05T09:33:11.973Z,67.80
2019-04-05T09:35:38.421Z,67.50
2019-04-05T09:38:04.862Z,68.20
2019-04-05T09:40:31.315Z,68.60
2019-04-05T09:42:57.590Z,67.10
2019-04-05T09:45:24.042Z,67.30
2019-04-05T09:47:50.494Z,67.90
2019-04-05T09:50:17.048Z,67.20
2019-04-05T09:52:43.294Z,66.90
2019-04-05T09:55:09.729Z,66.80
2019-04-05T09:57:36.079Z,67.10
2019-04-05T10:00:07.820Z,66.70
2019-04-05T10:02:34.061Z,65.20
2019-04-05T10:05:00.438Z,65.90
2019-04-05T10:07:26.685Z,65.80
2019-04-05T10:09:53.128Z,65.00
2019-04-05T10:12:19.498Z,64.00
2019-04-05T10:14:45.929Z,64.80
2019-04-05T10:17:12.165Z,64.50
2019-04-05T10:19:49.200Z,64.80
2019-04-05T10:22:06.656Z,64.90
2019-04-05T10:24:33.189Z,65.30
2019-04-05T10:26:59.478Z,65.90
2019-04-05T10:29:25.729Z,66.00
2019-04-05T10:31:52.168Z,66.30
2019-04-05T10:34:18.719Z,66.60
2019-04-05T10:36:44.953Z,66.00
2019-04-05T10:39:11.393Z,66.40
2019-04-05T10:41:38.034Z,67.50
2019-04-05T10:44:05.861Z,67.00
2019-04-05T10:46:32.409Z,66.00
2019-04-05T10:48:58.988Z,65.30
2019-04-05T10:51:25.425Z,64.60
2019-04-05T10:53:51.673Z,64.10
2019-04-05T10:56:18.037Z,64.20
2019-04-05T10:58:44.368Z,63.40
2019-04-05T11:01:10.809Z,63.60
2019-04-05T11:03:37.378Z,62.70
2019-04-05T11:06:03.931Z,63.80
2019-04-05T11:08:30.164Z,63.60
2019-04-05T11:10:56.788Z,63.70
2019-04-05T11:13:23.235Z,64.40
2019-04-05T11:15:49.581Z,64.30
2019-04-05T11:18:15.932Z,64.20
2019-04-05T11:20:42.369Z,64.60
2019-04-05T11:23:08.618Z,64.80
2019-04-05T11:25:34.866Z,64.70
2019-04-05T11:28:01.200Z,64.80
2019-04-05T11:30:33.981Z,65.80
2019-04-05T11:33:00.249Z,65.30
2019-04-05T11:35:26.589Z,65.40
2019-04-05T11:37:54.186Z,66.00
2019-04-05T11:40:20.685Z,65.60
2019-04-05T11:42:47.126Z,65.50
2019-04-05T11:45:15.372Z,65.50
2019-04-05T11:47:42.422Z,65.50
2019-04-05T11:50:09.762Z,65.00
2019-04-05T11:52:36.205Z,64.00
2019-04-05T11:55:04.833Z,63.50
2019-04-05T11:57:31.241Z,63.60
2019-04-05T11:59:57.481Z,63.80
2019-04-05T12:02:28.905Z,64.10
2019-04-05T12:04:57.033Z,64.20
2019-04-05T12:07:26.243Z,63.70
2019-04-05T12:09:51.437Z,64.30
2019-04-05T12:12:17.873Z,65.10
2019-04-05T12:14:44.109Z,64.80
2019-04-05T12:17:10.674Z,65.30
2019-04-05T12:19:38.188Z,65.90
2019-04-05T12:22:05.403Z,65.50
2019-04-05T12:24:32.660Z,65.60
2019-04-05T12:26:59.689Z,66.20
2019-04-05T12:29:25.944Z,66.20
2019-04-05T12:31:53.530Z,65.90
2019-04-05T12:34:22.231Z,66.60
2019-04-05T12:36:47.981Z,66.30
2019-04-05T12:39:14.253Z,66.40
2019-04-05T12:41:40.990Z,66.80
2019-04-05T12:44:07.833Z,67.00
2019-04-05T12:46:34.293Z,66.80
2019-04-05T12:49:00.911Z,67.60
2019-04-05T12:51:27.366Z,67.70
2019-04-05T12:53:56.360Z,67.30
2019-04-05T12:56:22.060Z,68.00
2019-04-05T12:58:48.406Z,68.40
2019-04-05T13:01:14.880Z,68.10
2019-04-05T13:03:41.117Z,67.60
2019-04-05T13:06:07.560Z,67.30
2019-04-05T13:08:34.111Z,67.60
2019-04-05T13:11:00.448Z,67.80
2019-04-05T13:13:27.718Z,68.20
2019-04-05T13:15:54.413Z,68.60
2019-04-05T13:18:20.665Z,68.20
2019-04-05T13:20:47.118Z,67.70
2019-04-05T13:23:13.384Z,67.80
2019-04-05T13:25:41.102Z,67.80
2019-04-05T13:28:13.640Z,67.90
2019-04-05T13:30:36.242Z,68.00
2019-04-05T13:33:02.684Z,67.30
2019-04-05T13:35:29.124Z,66.90
2019-04-05T13:37:55.277Z,68.10
2019-04-05T13:40:21.713Z,69.20
2019-04-05T13:42:48.058Z,69.30
2019-04-05T13:45:14.806Z,68.80
2019-04-05T13:47:41.041Z,69.50
2019-04-05T13:50:10.928Z,69.60
2019-04-05T13:52:36.345Z,69.50
2019-04-05T13:55:04.281Z,69.10
2019-04-05T13:57:30.529Z,69.40
2019-04-05T13:59:57.093Z,69.40
2019-04-05T14:02:23.654Z,69.70
2019-04-05T14:04:53.622Z,70.20
2019-04-05T14:07:18.565Z,70.00
2019-04-05T14:09:44.889Z,70.30
2019-04-05T14:12:11.354Z,70.10
2019-04-05T14:14:39.492Z,70.20
2019-04-05T14:17:05.976Z,71.00
2019-04-05T14:19:32.424Z,71.00
2019-04-05T14:22:08.243Z,72.00
2019-04-05T14:24:27.321Z,71.60
2019-04-05T14:26:53.676Z,72.20
2019-04-05T14:29:20.297Z,71.90
2019-04-05T14:31:46.640Z,71.50
2019-04-05T14:34:13.070Z,71.50
2019-04-05T14:36:39.437Z,71.90
2019-04-05T14:39:07.979Z,72.30
2019-04-05T14:41:34.336Z,72.30
2019-04-05T14:44:00.786Z,72.40
2019-04-05T14:46:28.997Z,72.30
2019-04-05T14:48:55.482Z,72.60
2019-04-05T14:51:22.073Z,73.20
2019-04-05T14:53:48.496Z,73.30
2019-04-05T14:56:15.085Z,73.00
2019-04-05T14:58:41.541Z,73.50
2019-04-05T15:01:10.404Z,73.80
2019-04-05T15:03:36.021Z,74.30
2019-04-05T15:06:02.956Z,74.80
2019-04-05T15:08:29.181Z,75.40
2019-04-05T15:10:56.919Z,75.40
2019-04-05T15:13:23.701Z,76.30
2019-04-05T15:15:50.208Z,76.40
2019-04-05T15:18:19.297Z,76.50
2019-04-05T15:20:44.825Z,76.60
2019-04-05T15:23:13.814Z,77.00
2019-04-05T15:25:39.341Z,77.40
2019-04-05T15:28:05.867Z,77.80
2019-04-05T15:30:32.109Z,77.90
2019-04-05T15:33:00.253Z,77.80
2019-04-05T15:35:28.280Z,78.20
2019-04-05T15:37:54.925Z,78.50
2019-04-05T15:40:21.575Z,79.20
2019-04-05T15:42:48.101Z,79.50
2019-04-05T15:45:16.086Z,79.60
2019-04-05T15:47:42.661Z,79.80
2019-04-05T15:50:09.209Z,80.20
2019-04-05T15:52:35.837Z,80.50
2019-04-05T15:55:04.593Z,80.60
2019-04-05T15:57:33.403Z,81.00
2019-04-05T15:59:59.378Z,81.50
2019-04-05T16:02:25.734Z,81.40
2019-04-05T16:04:52.381Z,81.40
2019-04-05T16:07:18.613Z,81.40
2019-04-05T16:09:45.204Z,81.70
2019-04-05T16:12:11.649Z,81.50
2019-04-05T16:14:37.989Z,82.20
2019-04-05T16:17:04.721Z,82.30
2019-04-05T16:19:30.988Z,82.70
2019-04-05T16:21:57.433Z,82.50
2019-04-05T16:24:23.774Z,82.70
2019-04-05T16:26:50.216Z,83.30
2019-04-05T16:29:16.473Z,83.20
2019-04-05T16:31:42.815Z,83.50
2019-04-05T16:34:09.343Z,83.50
2019-04-05T16:36:35.577Z,83.70
2019-04-05T16:39:02.011Z,83.70
2019-04-05T16:41:28.472Z,83.60
2019-04-05T16:43:54.710Z,84.20
2019-04-05T16:46:21.170Z,84.20
2019-04-05T16:48:47.728Z,83.90
2019-04-05T16:51:14.065Z,84.10
2019-04-05T16:53:59.640Z,84.10
2019-04-05T16:56:26.288Z,83.90
2019-04-05T16:58:52.721Z,83.80
2019-04-05T17:01:26.881Z,83.50
2019-04-05T17:03:47.038Z,84.20
2019-04-05T17:06:13.279Z,84.30
2019-04-05T17:08:39.529Z,84.40
2019-04-05T17:11:05.777Z,84.60
2019-04-05T17:13:32.218Z,85.00
2019-04-05T17:15:58.742Z,85.30
2019-04-05T17:18:25.265Z,85.90
2019-04-05T17:20:51.622Z,86.10
2019-04-05T17:23:18.076Z,86.50
2019-04-05T17:25:44.307Z,87.20
2019-04-05T17:28:10.549Z,87.20
2019-04-05T17:30:36.837Z,87.50
2019-04-05T17:33:03.280Z,88.00
2019-04-05T17:35:29.622Z,88.30
2019-04-05T17:37:55.978Z,88.70
2019-04-05T17:40:22.435Z,89.00
2019-04-05T17:42:48.872Z,89.40
2019-04-05T17:45:15.428Z,89.60
2019-04-05T17:47:41.877Z,89.60
2019-04-05T17:50:10.851Z,90.00
2019-04-05T17:52:37.677Z,90.00
2019-04-05T17:55:04.222Z,90.20
2019-04-05T17:57:30.661Z,90.20
2019-04-05T17:59:57.385Z,90.30
2019-04-05T18:02:23.809Z,90.50
2019-04-05T18:04:50.149Z,90.80
2019-04-05T18:07:16.529Z,90.90
2019-04-05T18:09:42.766Z,90.90
2019-04-05T18:12:09.101Z,91.20
2019-04-05T18:14:35.449Z,91.30
2019-04-05T18:17:01.790Z,91.40
2019-04-05T18:19:28.229Z,91.30
2019-04-05T18:21:54.609Z,91.50
2019-04-05T18:24:21.065Z,91.60
2019-04-05T18:26:47.621Z,91.70
2019-04-05T18:29:14.001Z,91.70
2019-04-05T18:31:40.340Z,91.80
2019-04-05T18:34:06.682Z,92.00
2019-04-05T18:36:33.210Z,91.90
2019-04-05T18:38:59.533Z,91.80
2019-04-05T18:41:25.887Z,92.10
2019-04-05T18:43:52.229Z,92.30
2019-04-05T18:46:18.472Z,92.40
2019-04-05T18:48:44.732Z,92.50
2019-04-05T18:51:11.209Z,92.60
2019-04-05T18:53:38.282Z,92.70
2019-04-05T18:56:04.739Z,92.70
2019-04-05T18:58:30.985Z,92.80
2019-04-05T19:00:57.453Z,92.90
2019-04-05T19:03:23.788Z,93.10
2019-04-05T19:05:50.257Z,93.10
2019-04-05T19:08:16.573Z,93.30
2019-04-05T19:10:42.927Z,93.30
2019-04-05T19:13:09.297Z,93.40
2019-04-05T19:15:35.650Z,93.40
2019-04-05T19:18:02.089Z,93.70
2019-04-05T19:20:28.567Z,93.80
2019-04-05T19:22:54.913Z,93.90
2019-04-05T19:25:21.253Z,94.00
2019-04-05T19:27:47.800Z,94.00
2019-04-05T19:50:01.870Z,94.80
2019-04-05T19:52:28.197Z,94.90
2019-04-05T19:54:54.437Z,94.90
2019-04-05T19:57:20.981Z,95.00
2019-04-05T19:59:47.459Z,95.10
2019-04-05T20:02:13.885Z,95.20
2019-04-05T20:04:40.273Z,95.20
2019-04-05T20:07:06.509Z,95.30
2019-04-05T20:09:32.865Z,95.30
2019-04-05T20:11:59.221Z,95.40
2019-04-05T20:14:25.573Z,95.40
2019-04-05T20:16:52.005Z,95.70
2019-04-05T20:19:18.384Z,95.60
2019-04-05T20:21:44.621Z,95.70
2019-04-05T20:24:14.379Z,95.80
2019-04-05T20:26:39.018Z,95.80
2019-04-05T20:29:05.472Z,95.90
2019-04-05T20:31:31.913Z,96.00
2019-04-05T20:33:58.269Z,95.90
2019-04-05T20:36:24.597Z,96.00
2019-04-05T20:38:50.935Z,96.10
2019-04-05T20:41:17.304Z,96.20
2019-04-05T20:43:43.549Z,96.40
2019-04-05T20:46:09.889Z,96.40
2019-04-05T20:48:36.342Z,96.00
2019-04-05T20:51:02.797Z,96.30
2019-04-05T20:53:29.135Z,96.40
2019-04-05T20:55:55.465Z,96.40
2019-04-05T20:58:21.921Z,96.40
2019-04-05T21:00:48.533Z,96.40
2019-04-05T21:03:14.961Z,96.40
2019-04-05T21:05:41.413Z,96.50
2019-04-05T21:08:07.769Z,96.50
2019-04-05T21:10:34.123Z,96.40
2019-04-05T21:13:00.572Z,96.50
2019-04-05T21:15:26.921Z,96.50
2019-04-05T21:17:53.384Z,96.60
2019-04-05T21:20:19.613Z,96.50
2019-04-05T21:22:45.759Z,96.60
2019-04-05T21:25:12.235Z,96.70
2019-04-05T21:27:38.581Z,96.80
2019-04-05T21:30:06.420Z,96.90
2019-04-05T21:32:32.892Z,96.90
2019-04-05T21:35:00.081Z,97.00
2019-04-05T21:37:26.332Z,96.90
2019-04-05T21:39:52.783Z,97.00
2019-04-05T21:42:19.121Z,97.10
2019-04-05T21:44:46.460Z,97.20
2019-04-05T21:47:12.893Z,97.10
2019-04-05T21:49:39.133Z,97.10
2019-04-05T21:52:05.577Z,97.30
2019-04-05T21:54:31.976Z,97.30
2019-04-05T21:56:58.163Z,97.40
2019-04-05T21:59:24.401Z,97.30
2019-04-05T22:01:50.875Z,97.60
2019-04-05T22:04:17.202Z,97.50
2019-04-05T22:06:43.532Z,97.60
2019-04-05T22:09:10.225Z,97.70
2019-04-05T22:11:36.569Z,97.80
2019-04-05T22:14:03.123Z,97.70
2019-04-05T22:16:29.480Z,97.80
2019-04-05T22:18:55.817Z,97.80
2019-04-05T22:21:22.185Z,97.80
2019-04-05T22:23:48.649Z,97.80
2019-04-05T22:26:14.941Z,98.00
2019-04-05T22:28:41.171Z,97.80
2019-04-05T22:31:07.830Z,97.60
2019-04-05T22:33:34.248Z,97.80
2019-04-05T22:36:00.502Z,98.00
2019-04-05T22:38:26.845Z,98.00
2019-04-05T22:40:53.194Z,97.90
2019-04-05T22:43:19.424Z,98.00
2019-04-05T22:45:45.877Z,98.20
2019-04-05T22:48:12.238Z,98.20
2019-04-05T22:50:38.569Z,98.20
2019-04-05T22:53:05.025Z,98.30
2019-04-05T22:55:31.365Z,98.00
2019-04-05T22:57:57.800Z,98.30
2019-04-05T23:00:24.473Z,98.20
2019-04-05T23:02:50.812Z,98.40
2019-04-05T23:05:17.161Z,98.30
2019-04-05T23:07:43.549Z,98.40
2019-04-05T23:10:10.041Z,98.50
2019-04-05T23:12:36.386Z,98.50
2019-04-05T23:15:06.389Z,98.50
2019-04-05T23:17:32.606Z,98.60
2019-04-05T23:19:58.976Z,98.80
2019-04-05T23:22:25.217Z,98.90
2019-04-05T23:24:52.096Z,98.90
2019-04-05T23:27:18.433Z,98.90
2019-04-05T23:29:44.856Z,98.80
2019-04-05T23:32:11.206Z,98.80
2019-04-05T23:34:37.437Z,98.80
2019-04-05T23:37:03.800Z,99.20
2019-04-05T23:39:30.262Z,98.90
2019-04-05T23:41:56.702Z,99.00
2019-04-05T23:44:23.134Z,99.10
2019-04-05T23:46:49.468Z,99.10
2019-04-05T23:49:15.916Z,99.20
2019-04-05T23:51:42.348Z,99.20
2019-04-05T23:54:08.658Z,99.20
2019-04-05T23:56:35.073Z,99.20
2019-04-05T23:59:01.553Z,99.30
